Oak Run, California
Current Conditions -  °F | °C
As of 5:46 AM on Saturday 25 Oct 2014 (Local Time) from KRDD Reporting Station
Moderate Rain Moderate Rain  
Wind Chill: 61°   Ceiling: 2600
Heat Index: 61°   Visibility: 4mi
Dew Point: 56°   Wind: 23mph
Humidity: 83%   Direction: 190°S
Pressure: 29.77"   Gusts: 43mph
Location:  40.69°N, 122.02°W
Report Text: KRDD 251246Z AUTO 19020G37KT 4SM RA BKN026 OVC032 16/13 A2977 RMK AO2 PK WND 18041/1232 RAB19 PRESRR P0003 T01610133
Loading
Personal Weather Stations






























Interactive Weather Map
Tropical Storm Tracking
New forecast layout! Learn more

10-Day Weather Forecast

Advertisements
Track Severe Weather on mobile